Time;durP1;ratioP1;P1;durP2;ratioP2;P2;SDS_P1;SDS_P2;PMS_P1;PMS_P2;Temp;Humidity;BMP_temperature;BMP_pressure;BME280_temperature;BME280_humidity;BME280_pressure;Samples;Min_cycle;Max_cycle;Signal;HPM_P1;HPM_P2
2022/12/26 00:05:36;;;;;;;20.48;9.07;;;;;;;6.34;77.39;99997.63;30617787;28;96696;-72
2022/12/26 00:20:36;;;;;;;18.13;9.30;;;;;;;6.46;77.37;99977.06;30627152;28;96840;-73
2022/12/26 00:35:36;;;;;;;16.92;8.43;;;;;;;6.43;77.35;99983.47;30626571;28;96752;-72
2022/12/26 00:50:37;;;;;;;16.13;8.50;;;;;;;6.34;77.77;99952.66;30624759;28;96734;-76
2022/12/26 01:05:49;;;;;;;20.17;9.02;;;;;;;6.23;78.00;99961.63;30623120;28;97234;-72
2022/12/26 01:20:49;;;;;;;14.07;8.85;;;;;;;6.22;77.96;99975.81;30620592;28;96706;-72
2022/12/26 01:35:51;;;;;;;16.73;9.10;;;;;;;6.13;77.95;99930.91;30620577;28;115630;-72
2022/12/26 01:51:00;;;;;;;20.05;9.27;;;;;;;6.03;77.91;99944.19;30619409;28;97385;-72
2022/12/26 02:06:01;;;;;;;18.20;9.32;;;;;;;6.01;78.11;99946.94;30617583;28;97016;-73
2022/12/26 02:21:11;;;;;;;18.52;10.13;;;;;;;6.12;78.47;99926.59;30616138;28;97231;-73
2022/12/26 02:36:39;;;;;;;18.35;10.05;;;;;;;6.16;78.81;99917.38;30613777;28;96885;-74
2022/12/26 03:22:40;;;;;;;16.40;8.85;;;;;;;6.18;78.91;99851.91;30613229;28;97503;-74
2022/12/26 03:38:11;;;;;;;14.65;9.07;;;;;;;6.29;79.54;99849.06;30622773;28;97411;-73
2022/12/26 04:55:17;;;;;;;10.00;6.10;;;;;;;7.19;78.95;99840.13;30630240;28;96580;-72
2022/12/26 05:10:22;;;;;;;12.05;5.68;;;;;;;7.43;78.46;99826.19;30622452;28;96854;-72
2022/12/26 05:40:44;;;;;;;9.53;4.90;;;;;;;7.76;78.12;99808.59;30620410;28;97067;-73
2022/12/26 05:55:45;;;;;;;9.52;5.50;;;;;;;7.89;77.75;99815.28;30617826;28;96541;-74
2022/12/26 06:10:45;;;;;;;10.20;5.22;;;;;;;7.94;77.91;99812.94;30616174;28;96739;-75
2022/12/26 06:25:55;;;;;;;8.23;4.75;;;;;;;8.07;77.79;99831.88;30613939;28;96632;-74
2022/12/26 06:40:55;;;;;;;6.93;4.30;;;;;;;8.57;77.51;99853.19;30616011;28;97626;-69
2022/12/26 06:56:04;;;;;;;6.53;4.25;;;;;;;8.88;76.87;99860.50;30611530;28;97023;-70
2022/12/26 07:11:12;;;;;;;7.83;4.37;;;;;;;8.94;75.98;99873.13;30610075;28;96675;-75
2022/12/26 07:26:12;;;;;;;6.90;4.73;;;;;;;9.02;75.35;99874.94;30609377;28;97138;-74
2022/12/26 07:56:32;;;;;;;5.47;3.67;;;;;;;8.92;74.65;99864.47;30606798;28;97006;-73
2022/12/26 08:11:34;;;;;;;7.55;4.63;;;;;;;8.95;74.53;99872.09;30604527;28;96880;-76
2022/12/26 08:26:34;;;;;;;7.93;4.50;;;;;;;9.00;74.31;99866.31;30614870;28;97124;-69
2022/12/26 08:41:34;;;;;;;7.53;3.90;;;;;;;9.08;73.93;99869.78;30623035;28;96811;-76
2022/12/26 08:56:35;;;;;;;7.43;4.60;;;;;;;9.25;73.63;99891.00;30622320;28;96719;-71
2022/12/26 09:11:36;;;;;;;8.25;4.80;;;;;;;9.87;72.36;99894.81;30619875;28;96758;-72
2022/12/26 09:26:37;;;;;;;5.97;3.73;;;;;;;19.72;58.56;99907.47;30618986;28;97429;-75
2022/12/26 09:41:57;;;;;;;5.63;3.97;;;;;;;14.76;59.41;99911.78;30616998;28;96829;-74
2022/12/26 09:56:58;;;;;;;6.40;3.90;;;;;;;21.62;50.30;99915.44;30617260;28;97194;-74
2022/12/26 10:12:04;;;;;;;5.20;3.33;;;;;;;20.41;43.62;99871.53;30614815;28;96765;-75
2022/12/26 10:27:12;;;;;;;5.50;3.80;;;;;;;16.60;51.59;99880.53;30614641;28;97354;-71
2022/12/26 10:42:39;;;;;;;6.33;4.33;;;;;;;13.52;55.60;99878.81;30612206;28;97555;-75
2022/12/26 10:57:41;;;;;;;6.67;4.13;;;;;;;13.40;56.96;99859.78;30611556;28;97069;-75
2022/12/26 11:12:49;;;;;;;6.60;4.23;;;;;;;15.35;56.05;99863.69;30609274;28;96873;-73
2022/12/26 11:27:57;;;;;;;7.63;3.67;;;;;;;23.78;40.83;99873.16;30611045;28;96677;-76
2022/12/26 11:43:02;;;;;;;7.37;3.70;;;;;;;19.67;39.10;99850.59;30611448;28;97065;-72
2022/12/26 11:58:05;;;;;;;5.33;3.70;;;;;;;16.29;45.67;99815.78;30616151;28;97325;-76
2022/12/26 12:13:17;;;;;;;10.50;3.87;;;;;;;14.18;50.88;99822.00;30630738;28;96706;-72
2022/12/26 12:28:39;;;;;;;6.40;3.77;;;;;;;13.49;53.51;99814.94;30628582;28;96798;-72
2022/12/26 12:43:42;;;;;;;9.67;3.90;;;;;;;12.40;56.69;99835.75;30626226;28;97224;-75
2022/12/26 12:58:42;;;;;;;;;;;;;;;12.04;59.10;99819.75;30626469;28;97248;-74
2022/12/26 13:13:59;;;;;;;7.07;3.75;;;;;;;11.61;60.70;99831.16;30623738;28;96775;-76
2022/12/26 13:29:10;;;;;;;7.73;4.80;;;;;;;11.57;61.04;99827.19;30623871;28;96615;-75
2022/12/26 13:44:19;;;;;;;5.73;3.50;;;;;;;11.54;61.75;99848.88;30622471;28;96578;-76
2022/12/26 13:59:50;;;;;;;6.10;3.40;;;;;;;11.47;62.47;99832.81;30620727;28;96614;-72
2022/12/26 14:15:06;;;;;;;6.60;3.47;;;;;;;11.22;62.67;99829.59;30617285;28;96835;-70
2022/12/26 14:30:20;;;;;;;6.00;3.70;;;;;;;11.04;63.05;99808.63;30607533;28;97455;-72
2022/12/26 14:45:29;;;;;;;7.93;4.30;;;;;;;10.77;64.48;99833.03;30605230;28;96735;-72
2022/12/26 15:00:32;;;;;;;6.80;4.20;;;;;;;10.76;64.69;99844.69;30603673;28;96790;-73
2022/12/26 15:15:45;;;;;;;6.67;4.50;;;;;;;10.58;64.59;99844.16;30511429;28;98253;-74
2022/12/26 15:30:45;;;;;;;10.70;3.87;;;;;;;10.53;65.68;99833.25;30489364;28;96706;-71
2022/12/26 15:45:57;;;;;;;9.40;4.93;;;;;;;10.48;65.78;99849.72;30488466;28;97608;-69
2022/12/26 16:00:58;;;;;;;8.30;4.77;;;;;;;10.34;66.47;99840.66;30655046;28;96876;-69
2022/12/26 16:15:59;;;;;;;6.47;4.30;;;;;;;10.25;67.52;99849.69;30643236;28;97027;-68
2022/12/26 16:31:00;;;;;;;11.43;7.00;;;;;;;10.20;67.72;99906.13;30660749;28;98008;-67
2022/12/26 16:46:04;;;;;;;6.33;3.97;;;;;;;10.16;68.37;99918.97;30657451;28;97050;-68
2022/12/26 17:01:11;;;;;;;5.53;3.10;;;;;;;9.81;69.33;99918.47;30693585;28;96686;-68
2022/12/26 17:16:12;;;;;;;6.27;3.37;;;;;;;9.62;69.92;99937.44;30571326;28;96749;-67
2022/12/26 17:31:20;;;;;;;6.28;3.25;;;;;;;9.39;70.21;99924.03;30563082;28;97100;-67
2022/12/26 17:46:20;;;;;;;7.63;3.80;;;;;;;9.25;70.48;99933.53;30610267;28;96747;-66
2022/12/26 18:01:20;;;;;;;6.15;2.95;;;;;;;9.19;70.78;99948.34;30568535;28;98022;-66
2022/12/26 18:16:26;;;;;;;7.53;3.58;;;;;;;9.15;70.91;99950.47;30545644;28;97284;-69
2022/12/26 18:31:27;;;;;;;7.07;3.50;;;;;;;8.97;70.88;99957.81;30562092;28;98881;-70
2022/12/26 18:46:28;;;;;;;7.27;3.93;;;;;;;8.73;71.07;99978.00;30573073;28;97240;-67
2022/12/26 19:01:29;;;;;;;6.67;3.07;;;;;;;8.62;71.55;99949.97;30485044;28;98128;-66
2022/12/26 19:16:29;;;;;;;6.25;2.97;;;;;;;8.57;71.63;99951.44;30490683;28;97349;-69
2022/12/26 19:31:30;;;;;;;7.18;3.25;;;;;;;8.40;71.90;99938.09;30482493;28;96760;-68
2022/12/26 19:46:30;;;;;;;10.70;4.65;;;;;;;8.08;72.17;99947.63;30501339;28;97230;-69
2022/12/26 20:01:31;;;;;;;11.25;6.40;;;;;;;7.92;72.66;99942.25;30591795;28;97342;-69
2022/12/26 20:16:33;;;;;;;9.77;5.10;;;;;;;7.87;72.82;99929.44;30592905;28;96926;-68
2022/12/26 20:31:34;;;;;;;10.80;5.67;;;;;;;7.87;73.09;99955.16;30611244;28;97082;-69
2022/12/26 20:46:35;;;;;;;6.77;3.23;;;;;;;7.94;72.89;99943.75;30609775;28;97403;-69
2022/12/26 21:01:38;;;;;;;6.55;3.85;;;;;;;7.92;72.97;99913.06;30590114;28;97534;-69
2022/12/26 21:16:42;;;;;;;8.07;5.37;;;;;;;7.95;73.39;99918.06;30616090;28;96730;-69
2022/12/26 21:31:43;;;;;;;9.57;5.07;;;;;;;8.07;73.78;99935.34;30614520;28;97324;-71
2022/12/26 21:46:44;;;;;;;13.27;5.17;;;;;;;8.10;73.85;99927.06;30565349;28;96822;-70
2022/12/26 22:01:44;;;;;;;10.00;6.30;;;;;;;8.19;73.92;99919.13;30537473;28;97448;-71
2022/12/26 22:16:44;;;;;;;7.70;4.95;;;;;;;8.27;74.28;99920.00;30525650;28;97381;-70
2022/12/26 22:31:45;;;;;;;7.88;4.72;;;;;;;8.24;74.96;99946.00;30564803;28;97149;-70
2022/12/26 22:46:45;;;;;;;6.05;3.97;;;;;;;8.26;75.13;99944.03;30554338;28;96740;-70
2022/12/26 23:01:45;;;;;;;3.50;2.33;;;;;;;8.40;75.34;99959.31;30504153;28;97007;-70
2022/12/26 23:16:57;;;;;;;3.10;1.80;;;;;;;8.39;75.05;99986.03;30494879;28;96681;-71
2022/12/26 23:31:57;;;;;;;2.13;1.30;;;;;;;8.15;74.92;100008.84;30494528;28;97076;-71
2022/12/26 23:46:58;;;;;;;2.40;1.40;;;;;;;7.74;74.84;99988.22;30493402;28;96649;-71
